createdAt,value
2019-06-08T00:01:12.512Z,99.90
2019-06-08T00:03:41.888Z,99.90
2019-06-08T00:06:12.505Z,99.90
2019-06-08T00:08:41.986Z,99.90
2019-06-08T00:11:11.284Z,99.90
2019-06-08T00:13:40.579Z,99.90
2019-06-08T00:16:10.064Z,99.90
2019-06-08T00:18:39.360Z,99.90
2019-06-08T00:21:08.664Z,99.90
2019-06-08T00:23:38.060Z,99.90
2019-06-08T00:26:07.471Z,99.90
2019-06-08T00:28:36.773Z,99.90
2019-06-08T00:31:06.085Z,99.90
2019-06-08T00:33:35.384Z,99.90
2019-06-08T00:36:04.682Z,99.90
2019-06-08T00:38:35.374Z,99.90
2019-06-08T00:41:04.673Z,99.90
2019-06-08T00:43:33.981Z,99.90
2019-06-08T00:46:03.284Z,99.90
2019-06-08T00:48:32.589Z,99.90
2019-06-08T00:51:01.892Z,99.90
2019-06-08T00:53:31.192Z,99.90
2019-06-08T00:56:00.672Z,99.90
2019-06-08T00:58:30.545Z,99.90
2019-06-08T01:00:59.929Z,99.90
2019-06-08T01:03:30.030Z,99.90
2019-06-08T01:05:59.404Z,99.90
2019-06-08T01:08:29.311Z,99.90
2019-06-08T01:10:58.780Z,99.90
2019-06-08T01:13:29.000Z,99.90
2019-06-08T01:15:58.443Z,99.90
2019-06-08T01:18:27.740Z,99.90
2019-06-08T01:20:57.047Z,99.90
2019-06-08T01:23:27.771Z,99.90
2019-06-08T01:25:57.236Z,99.90
2019-06-08T01:28:26.540Z,99.90
2019-06-08T01:30:55.840Z,99.90
2019-06-08T01:33:26.491Z,99.90
2019-06-08T01:35:56.649Z,99.90
2019-06-08T01:38:27.106Z,99.90
2019-06-08T01:40:57.880Z,99.90
2019-06-08T01:43:27.777Z,99.90
2019-06-08T01:45:57.274Z,99.90
2019-06-08T01:48:26.581Z,99.90
2019-06-08T01:50:55.890Z,99.90
2019-06-08T01:53:26.850Z,99.90
2019-06-08T01:55:56.309Z,99.90
2019-06-08T01:58:25.622Z,99.90
2019-06-08T02:00:54.937Z,99.90
2019-06-08T02:03:24.236Z,99.90
2019-06-08T02:05:53.575Z,99.90
2019-06-08T02:08:22.879Z,99.90
2019-06-08T02:10:52.187Z,99.90
2019-06-08T02:13:21.597Z,99.90
2019-06-08T02:15:50.892Z,99.90
2019-06-08T02:18:35.371Z,99.90
2019-06-08T02:20:51.238Z,99.90
2019-06-08T02:23:20.538Z,99.90
2019-06-08T02:25:49.849Z,99.90
2019-06-08T02:28:19.156Z,99.90
2019-06-08T02:30:49.084Z,99.90
2019-06-08T02:33:18.392Z,99.90
2019-06-08T02:35:47.703Z,99.90
2019-06-08T02:38:16.998Z,99.90
2019-06-08T02:40:46.301Z,99.90
2019-06-08T02:43:16.058Z,99.90
2019-06-08T02:45:45.371Z,99.90
2019-06-08T02:48:14.677Z,99.90
2019-06-08T02:50:52.167Z,99.90
2019-06-08T02:53:22.238Z,99.90
2019-06-08T02:55:51.947Z,99.90
2019-06-08T02:58:21.694Z,99.90
2019-06-08T03:00:53.167Z,99.90
2019-06-08T03:03:22.643Z,99.90
2019-06-08T03:05:53.574Z,99.90
2019-06-08T03:08:22.877Z,99.90
2019-06-08T03:10:53.091Z,99.90
2019-06-08T03:13:23.403Z,99.90
2019-06-08T03:15:52.811Z,99.90
2019-06-08T03:18:22.140Z,99.90
2019-06-08T03:20:51.457Z,99.90
2019-06-08T03:23:20.824Z,99.90
2019-06-08T03:25:52.869Z,99.90
2019-06-08T03:28:21.131Z,99.90
2019-06-08T03:30:54.429Z,99.90
2019-06-08T03:33:21.483Z,99.90
2019-06-08T03:35:57.101Z,99.90
2019-06-08T03:38:21.827Z,99.90
2019-06-08T03:40:51.137Z,99.90
2019-06-08T03:43:21.377Z,99.90
2019-06-08T03:45:50.669Z,99.90
2019-06-08T03:48:19.994Z,99.90
2019-06-08T03:50:49.308Z,99.90
2019-06-08T03:53:18.688Z,99.90
2019-06-08T03:55:48.005Z,99.90
2019-06-08T03:58:17.431Z,99.90
2019-06-08T04:00:49.161Z,99.90
2019-06-08T04:03:18.685Z,99.90
2019-06-08T04:05:47.994Z,99.90
2019-06-08T04:08:17.298Z,99.90
2019-06-08T04:10:46.957Z,99.90
2019-06-08T04:13:17.565Z,99.90
2019-06-08T04:15:47.154Z,99.90
2019-06-08T04:18:16.662Z,99.90
2019-06-08T04:20:48.559Z,99.90
2019-06-08T04:23:16.965Z,99.90
2019-06-08T04:25:47.772Z,99.90
2019-06-08T04:28:17.202Z,99.90
2019-06-08T04:30:49.146Z,99.90
2019-06-08T04:33:17.917Z,99.90
2019-06-08T04:35:47.481Z,99.90
2019-06-08T04:38:16.879Z,99.90
2019-06-08T04:40:48.056Z,99.90
2019-06-08T04:43:17.225Z,99.90
2019-06-08T04:45:49.766Z,99.90
2019-06-08T04:48:18.836Z,99.90
2019-06-08T04:50:49.778Z,99.90
2019-06-08T04:53:20.658Z,99.90
2019-06-08T04:55:49.962Z,99.90
2019-06-08T04:58:19.271Z,99.90
2019-06-08T05:00:50.717Z,99.90
2019-06-08T05:03:19.666Z,99.90
2019-06-08T05:05:50.162Z,99.90
2019-06-08T05:08:19.679Z,99.90
2019-06-08T05:10:49.702Z,99.90
2019-06-08T05:13:19.149Z,99.90
2019-06-08T05:15:50.297Z,99.90
2019-06-08T05:18:31.750Z,99.90
2019-06-08T05:21:01.055Z,99.90
2019-06-08T05:23:30.628Z,99.90
2019-06-08T05:25:59.955Z,99.90
2019-06-08T05:28:29.247Z,99.90
2019-06-08T05:30:59.247Z,99.90
2019-06-08T05:33:28.562Z,99.90
2019-06-08T05:35:57.871Z,99.90
2019-06-08T05:38:27.211Z,99.90
2019-06-08T05:40:56.528Z,99.90
2019-06-08T05:43:25.898Z,99.90
2019-06-08T05:45:56.474Z,99.90
2019-06-08T05:48:26.443Z,99.90
2019-06-08T05:51:03.641Z,99.90
2019-06-08T05:53:26.773Z,99.90
2019-06-08T05:55:56.166Z,99.90
2019-06-08T05:58:25.634Z,99.90
2019-06-08T06:00:54.942Z,99.90
2019-06-08T06:03:24.262Z,99.90
2019-06-08T06:05:55.792Z,99.90
2019-06-08T06:08:25.106Z,99.90
2019-06-08T06:10:54.444Z,99.90
2019-06-08T06:13:23.752Z,99.90
2019-06-08T06:15:53.051Z,99.90
2019-06-08T06:18:22.373Z,99.90
2019-06-08T06:20:51.803Z,99.90
2019-06-08T06:23:22.193Z,99.90
2019-06-08T06:25:51.869Z,99.90
2019-06-08T06:28:22.261Z,99.90
2019-06-08T06:30:52.199Z,99.90
2019-06-08T06:33:21.578Z,99.90
2019-06-08T06:35:52.145Z,99.90
2019-06-08T06:38:21.617Z,99.90
2019-06-08T06:40:52.099Z,99.90
2019-06-08T06:43:23.187Z,99.90
2019-06-08T06:45:52.484Z,99.90
2019-06-08T06:48:23.701Z,99.90
2019-06-08T06:50:53.237Z,99.90
2019-06-08T06:53:22.539Z,99.90
2019-06-08T06:55:53.217Z,99.80
2019-06-08T06:58:22.932Z,99.90
2019-06-08T07:00:53.878Z,97.10
2019-06-08T07:03:23.294Z,97.20
2019-06-08T07:05:52.606Z,98.90
2019-06-08T07:08:21.920Z,98.40
2019-06-08T07:10:51.273Z,99.90
2019-06-08T07:13:20.606Z,98.20
2019-06-08T07:15:54.116Z,97.50
2019-06-08T07:18:21.622Z,97.00
2019-06-08T07:20:52.008Z,97.30
2019-06-08T07:23:21.741Z,97.00
2019-06-08T07:25:52.863Z,95.80
2019-06-08T07:28:22.102Z,95.50
2019-06-08T07:30:52.691Z,96.90
2019-06-08T07:33:22.249Z,95.90
2019-06-08T07:35:53.268Z,96.70
2019-06-08T07:38:22.806Z,96.40
2019-06-08T07:40:52.105Z,95.40
2019-06-08T07:43:21.421Z,95.60
2019-06-08T07:45:51.861Z,95.90
2019-06-08T07:48:21.337Z,96.30
2019-06-08T07:50:52.244Z,95.50
2019-06-08T07:53:21.590Z,95.90
2019-06-08T07:55:51.556Z,95.20
2019-06-08T07:58:20.986Z,94.90
2019-06-08T08:00:52.551Z,94.90
2019-06-08T08:03:21.327Z,94.30
2019-06-08T08:05:50.692Z,95.30
2019-06-08T08:08:20.078Z,96.30
2019-06-08T08:10:50.362Z,96.40
2019-06-08T08:13:21.979Z,94.80
2019-06-08T08:15:51.291Z,93.70
2019-06-08T08:18:20.594Z,93.10
2019-06-08T08:20:51.040Z,92.50
2019-06-08T08:23:20.526Z,92.20
2019-06-08T08:25:50.358Z,90.70
2019-06-08T08:28:20.810Z,90.60
2019-06-08T08:30:52.285Z,87.30
2019-06-08T08:33:21.803Z,87.20
2019-06-08T08:35:52.223Z,90.50
2019-06-08T08:38:22.005Z,90.20
2019-06-08T08:40:52.853Z,90.20
2019-06-08T08:43:23.881Z,90.60
2019-06-08T08:45:54.006Z,92.00
2019-06-08T08:48:28.249Z,90.80
2019-06-08T08:50:56.189Z,91.20
2019-06-08T08:53:27.878Z,90.30
2019-06-08T08:56:00.523Z,91.00
2019-06-08T08:58:28.944Z,89.50
2019-06-08T09:01:01.547Z,87.80
2019-06-08T09:03:33.467Z,85.00
2019-06-08T09:06:03.882Z,83.90
2019-06-08T09:08:33.037Z,84.20
2019-06-08T09:11:03.674Z,86.20
2019-06-08T09:13:33.361Z,86.20
2019-06-08T09:16:04.231Z,82.90
2019-06-08T09:18:33.954Z,80.30
2019-06-08T09:21:04.201Z,83.80
2019-06-08T09:23:33.805Z,81.30
2019-06-08T09:26:08.766Z,85.40
2019-06-08T09:28:34.198Z,88.00
2019-06-08T09:31:04.154Z,86.00
2019-06-08T09:33:33.625Z,86.80
2019-06-08T09:36:04.975Z,89.40
2019-06-08T09:38:34.489Z,86.60
2019-06-08T09:41:05.346Z,89.20
2019-06-08T09:43:34.973Z,89.20
2019-06-08T09:46:05.546Z,90.60
2019-06-08T09:48:38.211Z,91.00
2019-06-08T09:51:09.364Z,89.20
2019-06-08T09:53:41.722Z,89.20
2019-06-08T09:56:10.316Z,87.10
2019-06-08T09:58:40.965Z,87.00
2019-06-08T10:01:12.306Z,89.50
2019-06-08T10:03:41.342Z,90.80
2019-06-08T10:06:12.433Z,87.80
2019-06-08T10:08:41.647Z,88.90
2019-06-08T10:11:11.045Z,88.40
2019-06-08T10:13:43.262Z,87.60
2019-06-08T10:16:11.429Z,85.70
2019-06-08T10:18:40.763Z,87.80
2019-06-08T10:21:10.349Z,91.20
2019-06-08T10:23:41.560Z,90.60
2019-06-08T10:26:11.270Z,91.10
2019-06-08T10:28:40.581Z,91.40
2019-06-08T10:31:09.886Z,92.00
2019-06-08T10:33:40.723Z,91.30
2019-06-08T10:36:12.807Z,89.20
2019-06-08T10:38:43.100Z,87.00
2019-06-08T10:41:19.085Z,90.10
2019-06-08T10:43:43.605Z,90.40
2019-06-08T10:46:17.235Z,86.80
2019-06-08T10:48:45.582Z,86.40
2019-06-08T10:51:14.897Z,88.70
2019-06-08T10:53:49.483Z,89.40
2019-06-08T10:56:15.211Z,88.40
2019-06-08T10:58:44.605Z,86.30
2019-06-08T11:01:14.037Z,88.90
2019-06-08T11:03:43.506Z,87.70
2019-06-08T11:06:13.483Z,88.10
2019-06-08T11:08:43.067Z,86.60
2019-06-08T11:11:13.474Z,84.50
2019-06-08T11:13:43.809Z,90.50
2019-06-08T11:16:13.868Z,90.60
2019-06-08T11:18:43.513Z,90.20
2019-06-08T11:21:13.164Z,90.40
2019-06-08T11:23:43.685Z,91.00
2019-06-08T11:26:19.593Z,91.00
2019-06-08T11:28:44.006Z,91.70
2019-06-08T11:31:16.028Z,92.10
2019-06-08T11:33:48.821Z,92.10
2019-06-08T11:36:18.833Z,91.90
2019-06-08T11:38:48.276Z,91.90
2019-06-08T11:41:19.078Z,91.70
2019-06-08T11:43:48.613Z,90.20
2019-06-08T11:46:21.360Z,90.80
2019-06-08T11:48:49.639Z,84.00
2019-06-08T11:51:18.945Z,81.20
2019-06-08T11:53:51.875Z,84.90
2019-06-08T11:56:19.721Z,86.80
2019-06-08T11:58:50.472Z,88.40
2019-06-08T12:01:19.789Z,87.30
2019-06-08T12:03:49.094Z,88.90
2019-06-08T12:06:18.690Z,89.20
2019-06-08T12:08:48.096Z,90.50
2019-06-08T12:11:20.744Z,90.20
2019-06-08T12:13:48.470Z,84.00
2019-06-08T12:16:21.597Z,82.00
2019-06-08T12:18:49.357Z,79.60
2019-06-08T12:21:18.805Z,80.60
2019-06-08T12:23:48.120Z,81.10
2019-06-08T12:26:17.426Z,78.90
2019-06-08T12:28:48.651Z,81.70
2019-06-08T12:31:22.409Z,83.80
2019-06-08T12:33:48.917Z,88.90
2019-06-08T12:36:20.771Z,88.80
2019-06-08T12:38:49.305Z,84.30
2019-06-08T12:41:19.397Z,83.00
2019-06-08T12:43:48.986Z,83.40
2019-06-08T12:46:19.845Z,78.50
2019-06-08T12:48:49.816Z,78.00
2019-06-08T12:51:21.323Z,79.80
2019-06-08T12:53:50.530Z,81.00
2019-06-08T12:56:23.916Z,82.80
2019-06-08T12:58:50.848Z,86.30
2019-06-08T13:01:20.175Z,87.80
2019-06-08T13:03:49.477Z,82.80
2019-06-08T13:06:19.996Z,83.70
2019-06-08T13:08:49.476Z,81.90
2019-06-08T13:11:20.879Z,77.70
2019-06-08T13:13:49.801Z,75.50
2019-06-08T13:16:23.794Z,72.80
2019-06-08T13:18:50.130Z,78.90
2019-06-08T13:21:31.912Z,77.20
2019-06-08T13:23:50.429Z,75.10
2019-06-08T13:26:24.873Z,75.40
2019-06-08T13:28:50.842Z,73.90
2019-06-08T13:31:22.607Z,79.40
2019-06-08T13:33:51.175Z,76.20
2019-06-08T13:36:26.074Z,73.00
2019-06-08T13:38:51.495Z,72.70
2019-06-08T13:41:26.037Z,76.00
2019-06-08T13:43:52.431Z,71.30
2019-06-08T13:46:23.543Z,78.90
2019-06-08T13:48:52.988Z,81.00
2019-06-08T13:51:24.245Z,86.30
2019-06-08T13:53:53.611Z,82.90
2019-06-08T13:56:24.017Z,83.30
2019-06-08T13:58:53.413Z,83.20
2019-06-08T14:01:23.803Z,82.50
2019-06-08T14:03:54.296Z,76.20
2019-06-08T14:06:24.907Z,75.00
2019-06-08T14:08:54.476Z,76.90
2019-06-08T14:11:25.039Z,75.20
2019-06-08T14:13:54.881Z,79.00
2019-06-08T14:16:25.320Z,80.00
2019-06-08T14:18:55.213Z,82.40
2019-06-08T14:21:32.010Z,84.90
2019-06-08T14:23:58.605Z,83.40
2019-06-08T14:26:27.677Z,73.30
2019-06-08T14:29:00.741Z,70.60
2019-06-08T14:31:30.407Z,65.90
2019-06-08T14:33:59.501Z,67.40
2019-06-08T14:36:30.368Z,67.00
2019-06-08T14:39:02.408Z,66.40
2019-06-08T14:41:32.457Z,64.40
2019-06-08T14:44:01.771Z,65.30
2019-06-08T14:46:31.079Z,67.80
2019-06-08T14:49:01.966Z,65.80
2019-06-08T14:51:50.507Z,66.90
2019-06-08T14:54:24.353Z,66.90
2019-06-08T14:56:51.645Z,62.50
2019-06-08T14:59:22.043Z,60.70
2019-06-08T15:01:51.994Z,61.80
2019-06-08T15:04:26.140Z,59.60
2019-06-08T15:06:52.302Z,62.90
2019-06-08T15:09:21.614Z,65.40
2019-06-08T15:11:50.965Z,69.10
2019-06-08T15:14:21.524Z,73.70
2019-06-08T15:16:51.061Z,72.50
2019-06-08T15:19:20.563Z,74.00
2019-06-08T15:21:49.965Z,74.90
2019-06-08T15:24:20.552Z,76.60
2019-06-08T15:26:50.981Z,76.10
2019-06-08T15:29:20.797Z,75.90
2019-06-08T15:31:50.294Z,75.20
2019-06-08T15:34:19.603Z,74.90
2019-06-08T15:36:48.900Z,76.80
2019-06-08T15:39:18.217Z,76.40
2019-06-08T15:41:48.829Z,77.10
2019-06-08T15:44:21.358Z,78.50
2019-06-08T15:46:49.348Z,78.90
2019-06-08T15:49:18.795Z,80.50
2019-06-08T15:51:50.789Z,80.60
2019-06-08T15:54:20.170Z,79.80
2019-06-08T15:56:52.217Z,79.60
2019-06-08T15:59:20.494Z,76.20
2019-06-08T16:01:49.806Z,76.40
2019-06-08T16:04:19.728Z,77.10
2019-06-08T16:06:49.103Z,77.30
2019-06-08T16:09:18.438Z,78.00
2019-06-08T16:11:47.879Z,76.50
2019-06-08T16:14:17.182Z,78.50
2019-06-08T16:16:46.514Z,77.20
2019-06-08T16:19:15.823Z,75.70
2019-06-08T16:21:45.132Z,79.80
2019-06-08T16:24:14.441Z,77.50
2019-06-08T16:26:52.646Z,77.20
2019-06-08T16:29:14.758Z,78.70
2019-06-08T16:31:44.057Z,78.00
2019-06-08T16:34:13.369Z,78.00
2019-06-08T16:36:42.681Z,76.60
2019-06-08T16:39:12.803Z,78.80
2019-06-08T16:41:54.431Z,78.80
2019-06-08T16:44:23.752Z,76.10
2019-06-08T16:46:53.169Z,74.60
2019-06-08T16:49:22.484Z,76.70
2019-06-08T16:51:51.817Z,73.10
2019-06-08T16:54:21.923Z,74.20
2019-06-08T16:56:51.229Z,76.10
2019-06-08T16:59:20.612Z,75.80
2019-06-08T17:01:49.913Z,74.10
2019-06-08T17:04:19.253Z,76.60
2019-06-08T17:06:48.608Z,74.90
2019-06-08T17:09:17.918Z,76.80
2019-06-08T17:11:47.221Z,76.80
2019-06-08T17:14:16.530Z,78.50
2019-06-08T17:16:45.829Z,79.20
2019-06-08T17:19:15.127Z,79.20
2019-06-08T17:21:44.441Z,78.60
2019-06-08T17:24:13.842Z,79.80
2019-06-08T17:26:43.146Z,80.20
2019-06-08T17:29:13.438Z,80.10
2019-06-08T17:31:42.739Z,80.70
2019-06-08T17:34:12.626Z,80.30
2019-06-08T17:36:42.760Z,81.10
2019-06-08T17:39:12.364Z,80.10
2019-06-08T17:41:42.573Z,79.00
2019-06-08T17:44:12.043Z,80.20
2019-06-08T17:46:42.836Z,80.70
2019-06-08T17:49:12.443Z,82.40
2019-06-08T17:51:44.026Z,80.80
2019-06-08T17:54:13.380Z,82.80
2019-06-08T17:56:43.489Z,82.30
2019-06-08T17:59:12.849Z,82.30
2019-06-08T18:01:42.165Z,81.70
2019-06-08T18:04:11.481Z,83.40
2019-06-08T18:06:41.828Z,83.40
2019-06-08T18:09:12.390Z,84.70
2019-06-08T18:11:43.825Z,84.70
2019-06-08T18:14:14.917Z,83.80
2019-06-08T18:16:47.818Z,84.10
2019-06-08T18:19:28.028Z,84.50
2019-06-08T18:22:02.818Z,85.80
2019-06-08T18:24:28.626Z,85.90
2019-06-08T18:26:58.830Z,87.50
2019-06-08T18:29:28.303Z,88.00
2019-06-08T18:31:58.151Z,88.20
2019-06-08T18:34:28.632Z,89.00
2019-06-08T18:36:58.273Z,88.90
2019-06-08T18:39:29.858Z,88.50
2019-06-08T18:41:59.746Z,89.10
2019-06-08T18:44:29.491Z,90.00
2019-06-08T18:46:58.799Z,90.40
2019-06-08T18:49:29.043Z,90.70
2019-06-08T18:51:58.576Z,91.20
2019-06-08T18:54:28.169Z,91.40
2019-06-08T18:56:58.513Z,91.90
2019-06-08T18:59:28.585Z,91.90
2019-06-08T19:01:58.265Z,92.20
2019-06-08T19:04:30.704Z,92.50
2019-06-08T19:07:01.760Z,92.90
2019-06-08T19:09:33.749Z,93.10
2019-06-08T19:12:03.069Z,93.60
2019-06-08T19:14:33.340Z,94.00
2019-06-08T19:17:02.665Z,94.00
2019-06-08T19:19:32.882Z,94.50
2019-06-08T19:22:02.212Z,95.00
2019-06-08T19:24:31.537Z,95.10
2019-06-08T19:27:00.837Z,95.60
2019-06-08T19:29:30.159Z,95.70
2019-06-08T19:32:00.480Z,96.30
2019-06-08T19:34:33.132Z,96.40
2019-06-08T19:37:01.225Z,97.20
2019-06-08T19:39:30.537Z,97.40
2019-06-08T19:42:00.190Z,97.90
2019-06-08T19:44:29.631Z,98.10
2019-06-08T19:46:58.936Z,98.50
2019-06-08T19:49:28.378Z,98.10
2019-06-08T19:51:58.162Z,98.40
2019-06-08T19:54:28.497Z,98.50
2019-06-08T19:56:57.801Z,98.50
2019-06-08T19:59:28.068Z,98.90
2019-06-08T20:01:59.766Z,99.00
2019-06-08T20:04:28.427Z,99.00
2019-06-08T20:07:00.484Z,99.10
2019-06-08T20:09:29.195Z,99.00
2019-06-08T20:12:00.155Z,99.40
2019-06-08T20:14:29.682Z,99.40
2019-06-08T20:16:59.010Z,99.70
2019-06-08T20:19:28.319Z,99.90
2019-06-08T20:21:58.312Z,99.90
2019-06-08T20:24:28.086Z,99.90
2019-06-08T20:26:57.638Z,99.90
2019-06-08T20:29:28.185Z,99.90
2019-06-08T20:31:59.933Z,99.90
2019-06-08T20:34:29.331Z,99.90
2019-06-08T20:37:01.429Z,99.90
2019-06-08T20:39:29.642Z,99.90
2019-06-08T20:41:58.951Z,99.90
2019-06-08T20:44:30.256Z,99.90
2019-06-08T20:46:59.396Z,99.90
2019-06-08T20:49:30.069Z,99.90
2019-06-08T20:52:00.372Z,99.90
2019-06-08T20:54:30.069Z,99.90
2019-06-08T20:56:59.374Z,99.90
2019-06-08T20:59:33.155Z,99.90
2019-06-08T21:01:59.856Z,99.90
2019-06-08T21:04:29.250Z,99.90
2019-06-08T21:06:58.567Z,99.90
2019-06-08T21:09:28.855Z,99.90
2019-06-08T21:11:58.678Z,99.90
2019-06-08T21:14:28.397Z,99.90
2019-06-08T21:16:58.543Z,99.90
2019-06-08T21:19:28.367Z,99.90
2019-06-08T21:21:59.220Z,99.90
2019-06-08T21:24:29.429Z,99.90
2019-06-08T21:27:00.602Z,99.90
2019-06-08T21:29:47.113Z,99.90
2019-06-08T21:32:02.692Z,99.90
2019-06-08T21:34:31.803Z,99.90
2019-06-08T21:37:02.010Z,99.90
2019-06-08T21:39:31.309Z,99.90
2019-06-08T21:42:02.879Z,99.90
2019-06-08T21:44:32.466Z,99.90
2019-06-08T21:47:01.792Z,99.90
2019-06-08T21:49:31.177Z,99.90
2019-06-08T21:52:01.276Z,99.90
2019-06-08T21:54:30.830Z,99.90
2019-06-08T21:57:01.138Z,99.90
2019-06-08T21:59:30.606Z,99.90
2019-06-08T22:02:03.858Z,99.90
2019-06-08T22:04:33.817Z,99.90
2019-06-08T22:07:03.339Z,99.90
2019-06-08T22:09:32.698Z,99.90
2019-06-08T22:12:03.327Z,99.90
2019-06-08T22:14:32.675Z,99.90
2019-06-08T22:17:03.157Z,99.90
2019-06-08T22:19:32.679Z,99.90
2019-06-08T22:22:02.229Z,99.90
2019-06-08T22:24:32.852Z,99.90
2019-06-08T22:27:02.186Z,99.90
2019-06-08T22:29:31.494Z,99.90
2019-06-08T22:32:00.790Z,99.90
2019-06-08T22:34:31.546Z,99.90
2019-06-08T22:37:00.851Z,99.90
2019-06-08T22:39:30.529Z,99.90
2019-06-08T22:42:01.209Z,99.90
2019-06-08T22:44:30.724Z,99.90
2019-06-08T22:47:01.557Z,99.90
2019-06-08T22:49:31.049Z,99.90
2019-06-08T22:52:01.333Z,99.90
2019-06-08T22:54:31.365Z,99.90
2019-06-08T22:57:02.979Z,99.90
2019-06-08T22:59:31.709Z,99.90
2019-06-08T23:02:02.823Z,99.90
2019-06-08T23:04:32.153Z,99.90
2019-06-08T23:07:04.378Z,99.90
2019-06-08T23:09:32.520Z,99.90
2019-06-08T23:12:04.650Z,99.90
2019-06-08T23:14:33.776Z,99.90
2019-06-08T23:17:04.011Z,99.90
2019-06-08T23:19:34.088Z,99.90
2019-06-08T23:22:04.025Z,99.90
2019-06-08T23:24:33.485Z,99.90
2019-06-08T23:27:04.148Z,99.90
2019-06-08T23:29:34.449Z,99.90
2019-06-08T23:32:04.812Z,99.90
2019-06-08T23:34:34.859Z,99.90
2019-06-08T23:37:06.631Z,99.90
2019-06-08T23:39:37.386Z,99.90
2019-06-08T23:42:06.177Z,99.90
2019-06-08T23:44:37.616Z,99.90
2019-06-08T23:47:08.027Z,99.90
2019-06-08T23:49:38.016Z,99.90
2019-06-08T23:52:11.318Z,99.90
2019-06-08T23:54:38.560Z,99.90
2019-06-08T23:57:10.100Z,99.90
2019-06-08T23:59:38.893Z,99.90
